sensor_id;sensor_type;location;lat;lon;timestamp;pressure;altitude;pressure_sealevel;temperature;humidity
68179;BME280;54998;42.656;23.382;2023-03-20T00:02:21;95188.59;;;4.79;58.87
68179;BME280;54998;42.656;23.382;2023-03-20T00:04:47;95182.75;;;4.64;58.64
68179;BME280;54998;42.656;23.382;2023-03-20T00:07:13;95173.56;;;4.62;59.09
68179;BME280;54998;42.656;23.382;2023-03-20T00:09:38;95177.72;;;4.50;58.64
68179;BME280;54998;42.656;23.382;2023-03-20T00:12:04;95165.94;;;4.35;58.90
68179;BME280;54998;42.656;23.382;2023-03-20T00:14:30;95178.47;;;4.38;60.03
68179;BME280;54998;42.656;23.382;2023-03-20T00:19:31;95177.94;;;4.32;59.71
68179;BME280;54998;42.656;23.382;2023-03-20T00:21:56;95174.88;;;4.27;59.29
68179;BME280;54998;42.656;23.382;2023-03-20T00:24:22;95174.44;;;4.21;59.60
68179;BME280;54998;42.656;23.382;2023-03-20T00:26:49;95175.16;;;4.08;59.75
68179;BME280;54998;42.656;23.382;2023-03-20T00:29:26;95155.56;;;4.10;59.67
68179;BME280;54998;42.656;23.382;2023-03-20T00:31:54;95164.81;;;4.11;59.56
68179;BME280;54998;42.656;23.382;2023-03-20T00:34:22;95160.72;;;4.09;59.42
68179;BME280;54998;42.656;23.382;2023-03-20T00:36:50;95161.53;;;4.09;59.46
68179;BME280;54998;42.656;23.382;2023-03-20T00:39:16;95164.09;;;4.09;59.34
68179;BME280;54998;42.656;23.382;2023-03-20T00:42:12;95158.47;;;4.04;59.41
68179;BME280;54998;42.656;23.382;2023-03-20T00:44:37;95152.38;;;4.07;59.52
68179;BME280;54998;42.656;23.382;2023-03-20T00:47:10;95152.94;;;4.12;59.83
68179;BME280;54998;42.656;23.382;2023-03-20T00:49:36;95156.72;;;4.19;59.71
68179;BME280;54998;42.656;23.382;2023-03-20T00:52:04;95153.28;;;4.20;58.92
68179;BME280;54998;42.656;23.382;2023-03-20T00:54:29;95153.47;;;4.17;58.82
68179;BME280;54998;42.656;23.382;2023-03-20T00:57:04;95156.91;;;4.16;58.34
68179;BME280;54998;42.656;23.382;2023-03-20T00:59:32;95156.81;;;4.18;58.87
68179;BME280;54998;42.656;23.382;2023-03-20T01:02:00;95146.00;;;4.28;58.24
68179;BME280;54998;42.656;23.382;2023-03-20T01:04:33;95140.91;;;4.28;58.95
68179;BME280;54998;42.656;23.382;2023-03-20T01:06:59;95138.66;;;4.24;57.91
68179;BME280;54998;42.656;23.382;2023-03-20T01:09:25;95140.03;;;4.15;57.89
68179;BME280;54998;42.656;23.382;2023-03-20T01:11:51;95139.84;;;4.18;58.33
68179;BME280;54998;42.656;23.382;2023-03-20T01:14:16;95136.25;;;4.08;59.08
68179;BME280;54998;42.656;23.382;2023-03-20T01:16:42;95130.53;;;4.04;60.80
68179;BME280;54998;42.656;23.382;2023-03-20T01:19:14;95131.28;;;3.92;60.29
68179;BME280;54998;42.656;23.382;2023-03-20T01:21:41;95133.72;;;3.94;61.49
68179;BME280;54998;42.656;23.382;2023-03-20T01:24:07;95130.75;;;3.73;61.02
68179;BME280;54998;42.656;23.382;2023-03-20T01:26:37;95126.59;;;3.57;61.67
68179;BME280;54998;42.656;23.382;2023-03-20T01:31:38;95132.56;;;3.42;61.03
68179;BME280;54998;42.656;23.382;2023-03-20T01:34:03;95138.09;;;3.48;60.94
68179;BME280;54998;42.656;23.382;2023-03-20T01:36:28;95141.44;;;3.35;61.26
68179;BME280;54998;42.656;23.382;2023-03-20T01:38:56;95146.78;;;3.30;61.43
68179;BME280;54998;42.656;23.382;2023-03-20T01:41:24;95137.00;;;3.38;60.96
68179;BME280;54998;42.656;23.382;2023-03-20T01:43:50;95146.97;;;3.41;60.73
68179;BME280;54998;42.656;23.382;2023-03-20T01:51:19;95151.41;;;3.38;60.68
68179;BME280;54998;42.656;23.382;2023-03-20T01:53:50;95153.13;;;3.37;60.63
68179;BME280;54998;42.656;23.382;2023-03-20T01:56:18;95148.34;;;3.33;60.73
68179;BME280;54998;42.656;23.382;2023-03-20T01:58:48;95152.75;;;3.29;61.83
68179;BME280;54998;42.656;23.382;2023-03-20T02:01:18;95146.69;;;3.17;61.57
68179;BME280;54998;42.656;23.382;2023-03-20T02:03:47;95153.38;;;3.18;61.50
68179;BME280;54998;42.656;23.382;2023-03-20T02:06:14;95146.84;;;3.14;61.58
68179;BME280;54998;42.656;23.382;2023-03-20T02:08:44;95146.03;;;3.14;61.54
68179;BME280;54998;42.656;23.382;2023-03-20T02:11:11;95146.09;;;3.12;61.57
68179;BME280;54998;42.656;23.382;2023-03-20T02:13:38;95136.34;;;3.06;61.71
68179;BME280;54998;42.656;23.382;2023-03-20T02:16:10;95138.31;;;3.01;62.07
68179;BME280;54998;42.656;23.382;2023-03-20T02:18:37;95135.31;;;2.94;62.21
68179;BME280;54998;42.656;23.382;2023-03-20T02:26:33;95143.34;;;2.86;62.45
68179;BME280;54998;42.656;23.382;2023-03-20T02:31:41;95135.91;;;2.83;62.62
68179;BME280;54998;42.656;23.382;2023-03-20T02:34:41;95142.25;;;2.91;61.86
68179;BME280;54998;42.656;23.382;2023-03-20T02:46:12;95139.69;;;3.06;62.92
68179;BME280;54998;42.656;23.382;2023-03-20T02:48:55;95138.31;;;3.01;62.20
68179;BME280;54998;42.656;23.382;2023-03-20T02:51:26;95135.03;;;2.84;62.04
68179;BME280;54998;42.656;23.382;2023-03-20T02:54:01;95135.88;;;2.69;62.37
68179;BME280;54998;42.656;23.382;2023-03-20T02:59:09;95132.28;;;2.57;62.76
68179;BME280;54998;42.656;23.382;2023-03-20T03:01:45;95131.00;;;2.50;62.92
68179;BME280;54998;42.656;23.382;2023-03-20T03:04:21;95126.75;;;2.51;63.30
68179;BME280;54998;42.656;23.382;2023-03-20T03:06:51;95125.13;;;2.50;62.93
68179;BME280;54998;42.656;23.382;2023-03-20T03:11:51;95125.94;;;2.50;63.06
68179;BME280;54998;42.656;23.382;2023-03-20T03:17:03;95129.06;;;2.39;63.71
68179;BME280;54998;42.656;23.382;2023-03-20T03:19:31;95122.81;;;2.45;63.79
68179;BME280;54998;42.656;23.382;2023-03-20T03:21:57;95128.31;;;2.37;63.76
68179;BME280;54998;42.656;23.382;2023-03-20T03:26:48;95122.94;;;2.28;65.38
68179;BME280;54998;42.656;23.382;2023-03-20T03:29:16;95124.84;;;2.24;64.91
68179;BME280;54998;42.656;23.382;2023-03-20T03:31:44;95134.03;;;2.25;64.71
68179;BME280;54998;42.656;23.382;2023-03-20T03:34:14;95136.03;;;2.20;64.88
68179;BME280;54998;42.656;23.382;2023-03-20T03:45:17;95138.88;;;1.98;65.63
68179;BME280;54998;42.656;23.382;2023-03-20T03:48:00;95134.88;;;1.94;65.46
68179;BME280;54998;42.656;23.382;2023-03-20T03:50:31;95132.00;;;1.84;66.13
68179;BME280;54998;42.656;23.382;2023-03-20T03:53:02;95132.34;;;1.78;66.37
68179;BME280;54998;42.656;23.382;2023-03-20T03:55:35;95130.88;;;1.74;67.00
68179;BME280;54998;42.656;23.382;2023-03-20T03:58:06;95136.41;;;1.80;66.72
68179;BME280;54998;42.656;23.382;2023-03-20T04:00:34;95135.03;;;1.91;66.24
68179;BME280;54998;42.656;23.382;2023-03-20T04:03:00;95127.59;;;2.03;65.51
68179;BME280;54998;42.656;23.382;2023-03-20T04:05:30;95128.25;;;2.07;65.22
68179;BME280;54998;42.656;23.382;2023-03-20T04:07:59;95124.50;;;2.14;65.06
68179;BME280;54998;42.656;23.382;2023-03-20T04:10:25;95126.69;;;2.20;65.04
68179;BME280;54998;42.656;23.382;2023-03-20T04:12:51;95118.78;;;2.26;65.56
68179;BME280;54998;42.656;23.382;2023-03-20T04:15:17;95115.84;;;2.18;64.92
68179;BME280;54998;42.656;23.382;2023-03-20T04:17:44;95118.56;;;2.15;64.94
68179;BME280;54998;42.656;23.382;2023-03-20T04:20:10;95116.75;;;2.17;64.33
68179;BME280;54998;42.656;23.382;2023-03-20T04:22:39;95125.63;;;2.24;63.74
68179;BME280;54998;42.656;23.382;2023-03-20T04:25:06;95119.84;;;2.22;63.89
68179;BME280;54998;42.656;23.382;2023-03-20T04:27:34;95111.28;;;2.09;64.03
68179;BME280;54998;42.656;23.382;2023-03-20T04:30:00;95110.28;;;2.12;64.04
68179;BME280;54998;42.656;23.382;2023-03-20T04:32:26;95102.63;;;2.13;64.21
68179;BME280;54998;42.656;23.382;2023-03-20T04:34:54;95115.44;;;2.10;64.25
68179;BME280;54998;42.656;23.382;2023-03-20T04:37:19;95111.91;;;1.97;64.85
68179;BME280;54998;42.656;23.382;2023-03-20T04:39:45;95115.38;;;1.96;65.09
68179;BME280;54998;42.656;23.382;2023-03-20T04:42:10;95112.59;;;2.00;64.90
68179;BME280;54998;42.656;23.382;2023-03-20T04:44:36;95112.16;;;1.92;65.24
68179;BME280;54998;42.656;23.382;2023-03-20T04:47:01;95124.44;;;2.00;65.04
68179;BME280;54998;42.656;23.382;2023-03-20T04:49:27;95122.28;;;2.08;64.88
68179;BME280;54998;42.656;23.382;2023-03-20T04:51:53;95126.03;;;2.33;64.74
68179;BME280;54998;42.656;23.382;2023-03-20T04:54:19;95127.03;;;2.76;63.33
68179;BME280;54998;42.656;23.382;2023-03-20T04:56:45;95131.94;;;3.53;61.30
68179;BME280;54998;42.656;23.382;2023-03-20T04:59:10;95128.84;;;4.32;58.61
68179;BME280;54998;42.656;23.382;2023-03-20T05:01:36;95130.53;;;4.46;57.25
68179;BME280;54998;42.656;23.382;2023-03-20T05:04:02;95135.66;;;5.11;55.14
68179;BME280;54998;42.656;23.382;2023-03-20T05:06:27;95143.19;;;5.00;54.67
68179;BME280;54998;42.656;23.382;2023-03-20T05:08:53;95135.06;;;5.21;53.80
68179;BME280;54998;42.656;23.382;2023-03-20T05:11:18;95152.38;;;5.28;53.44
68179;BME280;54998;42.656;23.382;2023-03-20T05:13:44;95150.16;;;5.49;53.54
68179;BME280;54998;42.656;23.382;2023-03-20T05:16:09;95142.59;;;5.73;53.25
68179;BME280;54998;42.656;23.382;2023-03-20T05:18:35;95146.25;;;5.82;52.98
68179;BME280;54998;42.656;23.382;2023-03-20T05:21:01;95151.84;;;5.87;52.25
68179;BME280;54998;42.656;23.382;2023-03-20T05:23:27;95154.59;;;6.10;51.84
68179;BME280;54998;42.656;23.382;2023-03-20T05:25:52;95150.25;;;6.36;51.05
68179;BME280;54998;42.656;23.382;2023-03-20T05:28:18;95154.66;;;6.82;49.78
68179;BME280;54998;42.656;23.382;2023-03-20T05:30:43;95146.34;;;7.27;48.99
68179;BME280;54998;42.656;23.382;2023-03-20T05:33:08;95154.63;;;7.64;48.01
68179;BME280;54998;42.656;23.382;2023-03-20T05:35:34;95159.41;;;8.02;47.58
68179;BME280;54998;42.656;23.382;2023-03-20T05:38:00;95158.69;;;8.23;46.55
68179;BME280;54998;42.656;23.382;2023-03-20T05:40:25;95154.94;;;8.38;45.35
68179;BME280;54998;42.656;23.382;2023-03-20T05:42:51;95157.03;;;8.56;45.63
68179;BME280;54998;42.656;23.382;2023-03-20T05:45:17;95149.41;;;9.09;44.50
68179;BME280;54998;42.656;23.382;2023-03-20T05:47:42;95150.75;;;9.55;42.78
68179;BME280;54998;42.656;23.382;2023-03-20T05:50:08;95147.94;;;9.58;42.30
68179;BME280;54998;42.656;23.382;2023-03-20T05:52:34;95148.97;;;9.46;42.59
68179;BME280;54998;42.656;23.382;2023-03-20T05:54:59;95165.13;;;9.68;42.96
68179;BME280;54998;42.656;23.382;2023-03-20T05:57:25;95166.66;;;9.80;42.19
68179;BME280;54998;42.656;23.382;2023-03-20T05:59:51;95166.22;;;9.96;42.20
68179;BME280;54998;42.656;23.382;2023-03-20T06:02:16;95166.47;;;10.83;40.32
68179;BME280;54998;42.656;23.382;2023-03-20T06:04:42;95158.38;;;10.98;39.66
68179;BME280;54998;42.656;23.382;2023-03-20T06:07:07;95149.81;;;11.17;39.53
68179;BME280;54998;42.656;23.382;2023-03-20T06:09:32;95153.22;;;11.37;39.71
68179;BME280;54998;42.656;23.382;2023-03-20T06:11:58;95152.34;;;11.65;39.16
68179;BME280;54998;42.656;23.382;2023-03-20T06:14:24;95147.44;;;11.72;38.77
68179;BME280;54998;42.656;23.382;2023-03-20T06:16:50;95152.75;;;11.51;39.10
68179;BME280;54998;42.656;23.382;2023-03-20T06:19:16;95150.44;;;12.15;37.96
68179;BME280;54998;42.656;23.382;2023-03-20T06:21:41;95145.06;;;12.99;37.31
68179;BME280;54998;42.656;23.382;2023-03-20T06:24:07;95141.94;;;13.13;36.01
68179;BME280;54998;42.656;23.382;2023-03-20T06:26:32;95149.94;;;12.57;36.69
68179;BME280;54998;42.656;23.382;2023-03-20T06:28:58;95151.28;;;12.97;35.98
68179;BME280;54998;42.656;23.382;2023-03-20T06:31:23;95155.59;;;14.79;33.82
68179;BME280;54998;42.656;23.382;2023-03-20T06:33:48;95151.44;;;15.52;32.01
68179;BME280;54998;42.656;23.382;2023-03-20T06:36:14;95165.28;;;14.77;32.47
68179;BME280;54998;42.656;23.382;2023-03-20T06:38:40;95163.75;;;13.89;34.56
68179;BME280;54998;42.656;23.382;2023-03-20T06:41:05;95154.81;;;13.49;35.01
68179;BME280;54998;42.656;23.382;2023-03-20T06:43:31;95158.22;;;13.76;34.96
68179;BME280;54998;42.656;23.382;2023-03-20T06:45:57;95157.63;;;14.25;34.63
68179;BME280;54998;42.656;23.382;2023-03-20T06:48:22;95155.31;;;15.23;32.50
68179;BME280;54998;42.656;23.382;2023-03-20T06:50:49;95154.66;;;15.46;32.35
68179;BME280;54998;42.656;23.382;2023-03-20T06:53:14;95158.59;;;16.61;30.45
68179;BME280;54998;42.656;23.382;2023-03-20T06:55:42;95158.28;;;16.56;30.38
68179;BME280;54998;42.656;23.382;2023-03-20T06:58:08;95153.81;;;14.79;33.48
68179;BME280;54998;42.656;23.382;2023-03-20T07:00:33;95144.75;;;16.46;30.86
68179;BME280;54998;42.656;23.382;2023-03-20T07:02:58;95138.66;;;16.62;30.34
68179;BME280;54998;42.656;23.382;2023-03-20T07:05:24;95129.25;;;17.38;29.87
68179;BME280;54998;42.656;23.382;2023-03-20T07:07:50;95126.78;;;17.60;29.23
68179;BME280;54998;42.656;23.382;2023-03-20T07:10:16;95133.91;;;18.77;27.23
68179;BME280;54998;42.656;23.382;2023-03-20T07:12:41;95134.03;;;19.26;26.33
68179;BME280;54998;42.656;23.382;2023-03-20T07:15:08;95135.78;;;18.32;27.50
68179;BME280;54998;42.656;23.382;2023-03-20T07:17:34;95134.63;;;18.85;27.07
68179;BME280;54998;42.656;23.382;2023-03-20T07:19:59;95135.63;;;19.27;26.36
68179;BME280;54998;42.656;23.382;2023-03-20T07:22:27;95135.63;;;20.53;24.65
68179;BME280;54998;42.656;23.382;2023-03-20T07:24:53;95128.91;;;20.72;24.39
68179;BME280;54998;42.656;23.382;2023-03-20T07:27:18;95122.06;;;20.58;24.85
68179;BME280;54998;42.656;23.382;2023-03-20T07:29:44;95122.84;;;20.10;25.76
68179;BME280;54998;42.656;23.382;2023-03-20T07:32:10;95122.41;;;20.55;24.67
68179;BME280;54998;42.656;23.382;2023-03-20T07:34:35;95126.13;;;20.81;24.79
68179;BME280;54998;42.656;23.382;2023-03-20T07:37:01;95126.34;;;20.86;25.20
68179;BME280;54998;42.656;23.382;2023-03-20T07:39:27;95118.59;;;21.59;24.02
68179;BME280;54998;42.656;23.382;2023-03-20T07:41:52;95120.63;;;20.14;25.70
68179;BME280;54998;42.656;23.382;2023-03-20T07:44:18;95124.63;;;18.67;27.22
68179;BME280;54998;42.656;23.382;2023-03-20T07:46:44;95127.94;;;18.61;27.95
68179;BME280;54998;42.656;23.382;2023-03-20T07:49:12;95132.28;;;18.76;27.48
68179;BME280;54998;42.656;23.382;2023-03-20T07:51:37;95128.53;;;18.12;29.27
68179;BME280;54998;42.656;23.382;2023-03-20T07:54:03;95130.81;;;18.00;29.11
68179;BME280;54998;42.656;23.382;2023-03-20T07:56:29;95122.00;;;18.82;28.04
68179;BME280;54998;42.656;23.382;2023-03-20T07:58:54;95130.03;;;18.51;28.47
68179;BME280;54998;42.656;23.382;2023-03-20T08:01:19;95133.22;;;18.83;28.35
68179;BME280;54998;42.656;23.382;2023-03-20T08:03:45;95136.91;;;18.95;28.46
68179;BME280;54998;42.656;23.382;2023-03-20T08:06:11;95133.66;;;18.35;28.84
68179;BME280;54998;42.656;23.382;2023-03-20T08:08:36;95132.78;;;20.00;27.05
68179;BME280;54998;42.656;23.382;2023-03-20T08:11:02;95126.19;;;20.46;26.33
68179;BME280;54998;42.656;23.382;2023-03-20T08:13:27;95130.19;;;20.00;26.69
68179;BME280;54998;42.656;23.382;2023-03-20T08:15:53;95120.75;;;20.96;25.20
68179;BME280;54998;42.656;23.382;2023-03-20T08:18:18;95129.78;;;20.03;25.94
68179;BME280;54998;42.656;23.382;2023-03-20T08:20:47;95125.56;;;21.12;24.83
68179;BME280;54998;42.656;23.382;2023-03-20T08:23:15;95134.22;;;20.09;26.21
68179;BME280;54998;42.656;23.382;2023-03-20T08:25:40;95129.16;;;20.91;25.27
68179;BME280;54998;42.656;23.382;2023-03-20T08:28:06;95132.78;;;22.82;23.17
68179;BME280;54998;42.656;23.382;2023-03-20T08:30:32;95126.22;;;23.86;22.17
68179;BME280;54998;42.656;23.382;2023-03-20T08:32:57;95132.66;;;21.71;24.10
68179;BME280;54998;42.656;23.382;2023-03-20T08:35:23;95140.66;;;21.90;24.09
68179;BME280;54998;42.656;23.382;2023-03-20T08:37:49;95137.47;;;21.74;23.98
68179;BME280;54998;42.656;23.382;2023-03-20T08:40:14;95141.63;;;22.81;22.89
68179;BME280;54998;42.656;23.382;2023-03-20T08:42:41;95134.97;;;22.33;23.64
68179;BME280;54998;42.656;23.382;2023-03-20T08:45:06;95136.25;;;21.17;25.21
68179;BME280;54998;42.656;23.382;2023-03-20T08:47:32;95125.47;;;22.45;23.63
68179;BME280;54998;42.656;23.382;2023-03-20T08:49:58;95118.97;;;21.89;24.35
68179;BME280;54998;42.656;23.382;2023-03-20T08:52:23;95117.63;;;21.53;24.64
68179;BME280;54998;42.656;23.382;2023-03-20T08:54:49;95113.44;;;23.21;23.32
68179;BME280;54998;42.656;23.382;2023-03-20T08:57:14;95119.13;;;24.12;21.71
68179;BME280;54998;42.656;23.382;2023-03-20T08:59:40;95118.94;;;23.63;21.80
68179;BME280;54998;42.656;23.382;2023-03-20T09:02:05;95117.56;;;24.41;21.55
68179;BME280;54998;42.656;23.382;2023-03-20T09:04:31;95111.16;;;26.69;19.05
68179;BME280;54998;42.656;23.382;2023-03-20T09:06:56;95110.16;;;27.16;18.49
68179;BME280;54998;42.656;23.382;2023-03-20T09:09:22;95111.94;;;25.82;19.23
68179;BME280;54998;42.656;23.382;2023-03-20T09:11:56;95107.97;;;25.91;19.54
68179;BME280;54998;42.656;23.382;2023-03-20T09:14:22;95100.75;;;27.54;17.58
68179;BME280;54998;42.656;23.382;2023-03-20T09:16:48;95100.81;;;27.76;17.96
68179;BME280;54998;42.656;23.382;2023-03-20T09:19:13;95099.47;;;28.51;16.97
68179;BME280;54998;42.656;23.382;2023-03-20T09:21:39;95102.59;;;27.70;17.34
68179;BME280;54998;42.656;23.382;2023-03-20T09:24:04;95089.66;;;25.73;19.42
68179;BME280;54998;42.656;23.382;2023-03-20T09:26:30;95092.16;;;24.05;20.79
68179;BME280;54998;42.656;23.382;2023-03-20T09:28:55;95089.25;;;27.60;17.79
68179;BME280;54998;42.656;23.382;2023-03-20T09:31:20;95088.06;;;28.67;16.75
68179;BME280;54998;42.656;23.382;2023-03-20T09:33:47;95086.59;;;28.82;16.51
68179;BME280;54998;42.656;23.382;2023-03-20T09:36:12;95081.31;;;28.82;16.39
68179;BME280;54998;42.656;23.382;2023-03-20T09:38:40;95086.22;;;28.24;17.22
68179;BME280;54998;42.656;23.382;2023-03-20T09:41:21;95072.34;;;29.75;15.66
68179;BME280;54998;42.656;23.382;2023-03-20T09:53:49;95050.72;;;27.08;17.50
68179;BME280;54998;42.656;23.382;2023-03-20T09:56:22;95042.56;;;25.71;19.10
68179;BME280;54998;42.656;23.382;2023-03-20T09:58:57;95027.72;;;25.41;19.22
68179;BME280;54998;42.656;23.382;2023-03-20T10:01:26;95023.97;;;26.82;18.17
68179;BME280;54998;42.656;23.382;2023-03-20T10:04:12;95029.00;;;27.69;17.29
68179;BME280;54998;42.656;23.382;2023-03-20T10:06:38;95021.38;;;28.33;17.12
68179;BME280;54998;42.656;23.382;2023-03-20T10:09:23;95020.56;;;29.41;15.85
68179;BME280;54998;42.656;23.382;2023-03-20T10:17:45;95009.63;;;22.76;22.09
68179;BME280;54998;42.656;23.382;2023-03-20T10:20:32;95008.13;;;21.65;23.69
68179;BME280;54998;42.656;23.382;2023-03-20T10:23:07;94996.78;;;21.91;24.02
68179;BME280;54998;42.656;23.382;2023-03-20T10:25:42;94996.19;;;23.85;21.03
68179;BME280;54998;42.656;23.382;2023-03-20T10:28:12;94994.41;;;26.06;19.39
68179;BME280;54998;42.656;23.382;2023-03-20T10:41:41;94981.34;;;23.42;21.72
68179;BME280;54998;42.656;23.382;2023-03-20T10:44:27;94977.69;;;25.60;19.33
68179;BME280;54998;42.656;23.382;2023-03-20T10:46:55;94972.97;;;26.26;18.47
68179;BME280;54998;42.656;23.382;2023-03-20T10:49:37;94972.50;;;26.58;18.49
68179;BME280;54998;42.656;23.382;2023-03-20T10:52:15;94969.88;;;24.10;20.87
68179;BME280;54998;42.656;23.382;2023-03-20T10:54:43;94954.81;;;24.36;20.78
68179;BME280;54998;42.656;23.382;2023-03-20T10:57:35;94954.03;;;24.89;19.70
68179;BME280;54998;42.656;23.382;2023-03-20T11:00:04;94950.50;;;24.84;19.77
68179;BME280;54998;42.656;23.382;2023-03-20T11:02:35;94947.13;;;25.94;19.00
68179;BME280;54998;42.656;23.382;2023-03-20T11:05:22;94942.94;;;27.57;17.12
68179;BME280;54998;42.656;23.382;2023-03-20T11:07:51;94934.06;;;28.35;16.53
68179;BME280;54998;42.656;23.382;2023-03-20T11:10:26;94932.88;;;27.54;16.85
68179;BME280;54998;42.656;23.382;2023-03-20T11:12:52;94933.50;;;26.55;17.97
68179;BME280;54998;42.656;23.382;2023-03-20T11:20:21;94922.22;;;27.66;16.77
68179;BME280;54998;42.656;23.382;2023-03-20T11:22:49;94909.94;;;28.85;15.67
68179;BME280;54998;42.656;23.382;2023-03-20T11:25:29;94896.94;;;28.74;15.71
68179;BME280;54998;42.656;23.382;2023-03-20T11:27:57;94908.22;;;28.69;16.06
68179;BME280;54998;42.656;23.382;2023-03-20T11:30:42;94902.78;;;27.94;16.81
68179;BME280;54998;42.656;23.382;2023-03-20T11:33:07;94898.41;;;30.02;14.81
68179;BME280;54998;42.656;23.382;2023-03-20T11:35:33;94890.84;;;29.63;15.44
68179;BME280;54998;42.656;23.382;2023-03-20T11:38:18;94888.25;;;27.48;16.62
68179;BME280;54998;42.656;23.382;2023-03-20T11:40:45;94881.75;;;27.33;16.80
68179;BME280;54998;42.656;23.382;2023-03-20T11:43:18;94877.81;;;28.34;15.68
68179;BME280;54998;42.656;23.382;2023-03-20T11:45:55;94880.84;;;29.13;15.26
68179;BME280;54998;42.656;23.382;2023-03-20T11:48:25;94870.84;;;29.78;14.40
68179;BME280;54998;42.656;23.382;2023-03-20T11:51:04;94860.19;;;28.08;16.09
68179;BME280;54998;42.656;23.382;2023-03-20T11:53:35;94863.44;;;27.65;16.62
68179;BME280;54998;42.656;23.382;2023-03-20T11:56:08;94850.84;;;28.97;15.12
68179;BME280;54998;42.656;23.382;2023-03-20T11:59:13;94857.59;;;27.63;16.15
68179;BME280;54998;42.656;23.382;2023-03-20T12:01:53;94843.81;;;28.65;15.90
68179;BME280;54998;42.656;23.382;2023-03-20T12:04:26;94841.06;;;27.95;16.01
68179;BME280;54998;42.656;23.382;2023-03-20T12:06:56;94846.97;;;28.02;16.11
68179;BME280;54998;42.656;23.382;2023-03-20T12:12:14;94837.53;;;27.62;15.79
68179;BME280;54998;42.656;23.382;2023-03-20T12:17:34;94820.91;;;27.35;15.33
68179;BME280;54998;42.656;23.382;2023-03-20T12:20:22;94831.25;;;26.47;15.84
68179;BME280;54998;42.656;23.382;2023-03-20T12:22:57;94827.81;;;27.41;15.37
68179;BME280;54998;42.656;23.382;2023-03-20T12:25:26;94820.00;;;28.60;14.15
68179;BME280;54998;42.656;23.382;2023-03-20T12:34:10;94809.16;;;27.70;15.43
68179;BME280;54998;42.656;23.382;2023-03-20T12:36:32;94805.13;;;28.16;15.15
68179;BME280;54998;42.656;23.382;2023-03-20T12:39:01;94799.09;;;28.21;14.92
68179;BME280;54998;42.656;23.382;2023-03-20T12:41:43;94802.34;;;27.47;15.34
68179;BME280;54998;42.656;23.382;2023-03-20T12:50:21;94793.34;;;25.23;16.84
68179;BME280;54998;42.656;23.382;2023-03-20T12:53:01;94783.53;;;27.16;15.19
68179;BME280;54998;42.656;23.382;2023-03-20T12:55:51;94773.53;;;27.40;15.16
68179;BME280;54998;42.656;23.382;2023-03-20T12:58:40;94768.41;;;26.67;15.59
68179;BME280;54998;42.656;23.382;2023-03-20T13:12:25;94755.88;;;26.74;15.42
68179;BME280;54998;42.656;23.382;2023-03-20T13:31:26;94740.28;;;22.26;17.60
68179;BME280;54998;42.656;23.382;2023-03-20T13:38:51;94726.41;;;21.76;18.13
68179;BME280;54998;42.656;23.382;2023-03-20T13:41:19;94725.16;;;21.53;18.25
68179;BME280;54998;42.656;23.382;2023-03-20T13:43:52;94725.16;;;21.53;18.13
68179;BME280;54998;42.656;23.382;2023-03-20T13:46:33;94721.84;;;21.71;18.25
68179;BME280;54998;42.656;23.382;2023-03-20T13:49:06;94725.84;;;21.35;18.80
68179;BME280;54998;42.656;23.382;2023-03-20T13:51:43;94709.19;;;21.68;18.81
68179;BME280;54998;42.656;23.382;2023-03-20T13:57:22;94717.91;;;21.55;18.01
68179;BME280;54998;42.656;23.382;2023-03-20T14:05:23;94708.53;;;21.47;18.51
68179;BME280;54998;42.656;23.382;2023-03-20T14:11:13;94694.91;;;21.70;17.71
68179;BME280;54998;42.656;23.382;2023-03-20T14:13:53;94699.22;;;21.83;18.20
68179;BME280;54998;42.656;23.382;2023-03-20T14:16:19;94690.25;;;21.98;18.22
68179;BME280;54998;42.656;23.382;2023-03-20T14:19:02;94688.56;;;22.10;17.78
68179;BME280;54998;42.656;23.382;2023-03-20T14:21:28;94685.94;;;22.10;17.66
68179;BME280;54998;42.656;23.382;2023-03-20T14:24:02;94685.44;;;22.20;17.69
68179;BME280;54998;42.656;23.382;2023-03-20T14:26:33;94679.97;;;22.03;17.77
68179;BME280;54998;42.656;23.382;2023-03-20T14:29:18;94672.75;;;21.98;18.25
68179;BME280;54998;42.656;23.382;2023-03-20T14:31:47;94670.13;;;21.54;18.34
68179;BME280;54998;42.656;23.382;2023-03-20T14:34:21;94675.34;;;21.54;18.51
68179;BME280;54998;42.656;23.382;2023-03-20T14:48:24;94668.59;;;20.63;19.67
68179;BME280;54998;42.656;23.382;2023-03-20T14:53:20;94662.03;;;20.92;19.41
68179;BME280;54998;42.656;23.382;2023-03-20T15:06:17;94664.66;;;20.41;20.02
68179;BME280;54998;42.656;23.382;2023-03-20T15:08:46;94656.84;;;20.41;19.79
68179;BME280;54998;42.656;23.382;2023-03-20T15:11:14;94664.84;;;20.39;19.43
68179;BME280;54998;42.656;23.382;2023-03-20T15:13:41;94663.66;;;20.35;19.63
68179;BME280;54998;42.656;23.382;2023-03-20T15:16:10;94664.66;;;20.27;19.91
68179;BME280;54998;42.656;23.382;2023-03-20T15:18:45;94658.50;;;20.15;19.71
68179;BME280;54998;42.656;23.382;2023-03-20T15:23:44;94663.75;;;20.02;20.47
68179;BME280;54998;42.656;23.382;2023-03-20T15:26:12;94666.56;;;19.94;20.92
68179;BME280;54998;42.656;23.382;2023-03-20T15:28:39;94658.94;;;19.85;20.47
68179;BME280;54998;42.656;23.382;2023-03-20T15:31:05;94655.75;;;19.83;20.24
68179;BME280;54998;42.656;23.382;2023-03-20T15:33:38;94650.13;;;19.80;19.72
68179;BME280;54998;42.656;23.382;2023-03-20T15:36:17;94653.75;;;19.79;19.87
68179;BME280;54998;42.656;23.382;2023-03-20T15:38:43;94654.53;;;19.79;19.92
68179;BME280;54998;42.656;23.382;2023-03-20T15:41:27;94660.78;;;19.78;20.13
68179;BME280;54998;42.656;23.382;2023-03-20T15:44:01;94656.53;;;19.77;20.04
68179;BME280;54998;42.656;23.382;2023-03-20T15:46:27;94650.72;;;19.68;20.24
68179;BME280;54998;42.656;23.382;2023-03-20T15:48:52;94651.50;;;19.62;20.66
68179;BME280;54998;42.656;23.382;2023-03-20T15:51:23;94656.53;;;19.50;20.19
68179;BME280;54998;42.656;23.382;2023-03-20T15:53:50;94658.34;;;19.30;20.61